Time;durP1;ratioP1;P1;durP2;ratioP2;P2;SDS_P1;SDS_P2;PMS_P1;PMS_P2;Temp;Humidity;BMP_temperature;BMP_pressure;BME280_temperature;BME280_humidity;BME280_pressure;Samples;Min_cycle;Max_cycle;Signal;HPM_P1;HPM_P2
2021/09/04 00:00:14;;;;;;;0.10;0.00;;;;;;;;;;10498569;28;20070;-72
2021/09/04 00:05:17;;;;;;;0.00;0.00;;;;;;;;;;10516251;28;20048;-72
2021/09/04 00:10:21;;;;;;;0.00;0.00;;;;;;;;;;10516162;28;20409;-72
2021/09/04 00:15:26;;;;;;;0.00;0.00;;;;;;;;;;10502941;28;20047;-72
2021/09/04 00:20:29;;;;;;;0.22;0.00;;;;;;;;;;10520033;28;20473;-72
2021/09/04 00:25:33;;;;;;;0.00;0.00;;;;;;;;;;10513363;28;20041;-72
2021/09/04 00:30:37;;;;;;;0.08;0.00;;;;;;;;;;10491327;28;20045;-72
2021/09/04 00:35:40;;;;;;;0.00;0.00;;;;;;;;;;10513799;28;20043;-72
2021/09/04 00:40:44;;;;;;;0.00;0.00;;;;;;;;;;10488451;28;20044;-72
2021/09/04 00:45:49;;;;;;;0.00;0.00;;;;;;;;;;10511048;28;20044;-72
2021/09/04 00:50:51;;;;;;;0.00;0.00;;;;;;;;;;10528807;28;20044;-72
2021/09/04 00:56:00;;;;;;;0.00;0.00;;;;;;;;;;10517106;28;20620;-72
2021/09/04 01:01:02;;;;;;;0.00;0.00;;;;;;;;;;10496993;28;20063;-72
2021/09/04 01:06:07;;;;;;;0.00;0.00;;;;;;;;;;10505018;28;20317;-72
2021/09/04 01:11:12;;;;;;;0.00;0.00;;;;;;;;;;10521920;28;20401;-73
2021/09/04 01:16:15;;;;;;;0.00;0.00;;;;;;;;;;10515629;28;20048;-73
2021/09/04 01:21:18;;;;;;;0.00;0.00;;;;;;;;;;10518937;28;20447;-73
2021/09/04 01:26:23;;;;;;;0.05;0.05;;;;;;;;;;10516505;28;20047;-72
2021/09/04 01:31:26;;;;;;;0.00;0.00;;;;;;;;;;10515194;28;20044;-72
2021/09/04 01:36:30;;;;;;;0.00;0.00;;;;;;;;;;10506102;28;20040;-72
2021/09/04 01:41:35;;;;;;;0.00;0.00;;;;;;;;;;10517381;28;20047;-72
2021/09/04 01:46:39;;;;;;;0.00;0.00;;;;;;;;;;10522049;28;20124;-72
2021/09/04 01:51:42;;;;;;;0.00;0.00;;;;;;;;;;10505903;28;20467;-72
2021/09/04 01:56:46;;;;;;;0.00;0.00;;;;;;;;;;10517682;28;20050;-72
2021/09/04 02:01:51;;;;;;;0.00;0.00;;;;;;;;;;10507426;28;20040;-72
2021/09/04 02:06:55;;;;;;;0.00;0.00;;;;;;;;;;10503025;28;20448;-72
2021/09/04 02:12:00;;;;;;;0.10;0.00;;;;;;;;;;10502320;28;20094;-72
2021/09/04 02:17:03;;;;;;;0.00;0.00;;;;;;;;;;10509280;28;20084;-72
2021/09/04 02:22:06;;;;;;;0.00;0.00;;;;;;;;;;10511806;28;20482;-72
2021/09/04 02:27:12;;;;;;;0.00;0.00;;;;;;;;;;10512761;28;20490;-72
2021/09/04 02:32:15;;;;;;;0.00;0.00;;;;;;;;;;10503643;28;20078;-72
2021/09/04 02:37:19;;;;;;;0.05;0.05;;;;;;;;;;10506670;28;20048;-72
2021/09/04 02:42:25;;;;;;;0.00;0.00;;;;;;;;;;10505847;28;20036;-72
2021/09/04 02:47:28;;;;;;;0.00;0.00;;;;;;;;;;10512564;28;20055;-72
2021/09/04 02:52:31;;;;;;;0.00;0.00;;;;;;;;;;10519886;28;20731;-72
2021/09/04 02:57:35;;;;;;;0.00;0.00;;;;;;;;;;10501358;28;20048;-72
2021/09/04 03:02:40;;;;;;;0.00;0.00;;;;;;;;;;10507981;28;20047;-72
2021/09/04 03:07:44;;;;;;;0.00;0.00;;;;;;;;;;10497901;28;20049;-72
2021/09/04 03:12:49;;;;;;;0.00;0.00;;;;;;;;;;10510823;28;20097;-72
2021/09/04 03:17:53;;;;;;;0.00;0.00;;;;;;;;;;10515449;28;20506;-72
2021/09/04 03:22:56;;;;;;;0.00;0.00;;;;;;;;;;10508871;28;20116;-72
2021/09/04 03:28:01;;;;;;;0.00;0.00;;;;;;;;;;10521370;28;20036;-73
2021/09/04 03:33:04;;;;;;;0.00;0.00;;;;;;;;;;10518523;28;20089;-72
2021/09/04 03:38:08;;;;;;;0.00;0.00;;;;;;;;;;10527279;28;20037;-72
2021/09/04 03:43:14;;;;;;;0.00;0.00;;;;;;;;;;10520887;28;20086;-73
2021/09/04 03:48:19;;;;;;;0.00;0.00;;;;;;;;;;10499485;28;20071;-71
2021/09/04 03:53:22;;;;;;;0.00;0.00;;;;;;;;;;10518139;28;20044;-72
2021/09/04 03:58:26;;;;;;;0.00;0.00;;;;;;;;;;10512524;28;20118;-71
2021/09/04 04:03:29;;;;;;;0.10;0.10;;;;;;;;;;10514772;28;20469;-72
2021/09/04 04:08:32;;;;;;;0.82;0.30;;;;;;;;;;10505928;28;20043;-72
2021/09/04 04:13:38;;;;;;;0.08;0.08;;;;;;;;;;10519742;28;20044;-72
2021/09/04 04:18:42;;;;;;;0.28;0.10;;;;;;;;;;10518848;28;20036;-74
2021/09/04 04:23:46;;;;;;;0.20;0.10;;;;;;;;;;10516433;28;20446;-75
2021/09/04 04:28:52;;;;;;;0.43;0.10;;;;;;;;;;10512368;28;20098;-73
2021/09/04 04:33:57;;;;;;;0.40;0.10;;;;;;;;;;10520354;28;20040;-72
2021/09/04 04:39:02;;;;;;;0.00;0.00;;;;;;;;;;10496356;28;20052;-72
2021/09/04 04:44:06;;;;;;;0.10;0.10;;;;;;;;;;10513500;28;20052;-72
2021/09/04 04:49:11;;;;;;;0.10;0.03;;;;;;;;;;10518545;28;20390;-72
2021/09/04 04:54:16;;;;;;;0.28;0.10;;;;;;;;;;10516842;28;20050;-72
2021/09/04 04:59:20;;;;;;;0.28;0.10;;;;;;;;;;10512676;28;20040;-72
2021/09/04 05:04:24;;;;;;;0.00;0.00;;;;;;;;;;10503674;28;20048;-73
2021/09/04 05:09:26;;;;;;;0.22;0.00;;;;;;;;;;10517997;28;20456;-72
2021/09/04 05:14:39;;;;;;;0.00;0.00;;;;;;;;;;10514735;28;20112;-72
2021/09/04 05:19:43;;;;;;;0.20;0.00;;;;;;;;;;10518142;28;20073;-73
2021/09/04 05:24:49;;;;;;;0.00;0.00;;;;;;;;;;10491636;28;20055;-72
2021/09/04 05:29:54;;;;;;;0.00;0.00;;;;;;;;;;10488923;28;20102;-72
2021/09/04 05:34:59;;;;;;;0.00;0.00;;;;;;;;;;10511485;28;20413;-72
2021/09/04 05:40:03;;;;;;;0.00;0.00;;;;;;;;;;10522737;28;20039;-73
2021/09/04 05:45:09;;;;;;;0.00;0.00;;;;;;;;;;10498257;28;20055;-72
2021/09/04 05:50:12;;;;;;;0.10;0.10;;;;;;;;;;10508426;28;20044;-72
2021/09/04 05:55:15;;;;;;;0.00;0.00;;;;;;;;;;10509427;28;20067;-72
2021/09/04 06:00:20;;;;;;;0.10;0.10;;;;;;;;;;10513582;28;20052;-72
2021/09/04 06:05:23;;;;;;;0.03;0.03;;;;;;;;;;10511241;28;20055;-72
2021/09/04 06:10:26;;;;;;;0.10;0.10;;;;;;;;;;10498867;28;20067;-72
2021/09/04 06:15:31;;;;;;;0.05;0.05;;;;;;;;;;10499302;28;20047;-72
2021/09/04 06:20:34;;;;;;;0.52;0.20;;;;;;;;;;10495492;28;20494;-73
2021/09/04 06:25:38;;;;;;;0.85;0.40;;;;;;;;;;10508030;28;20106;-73
2021/09/04 06:30:42;;;;;;;0.10;0.10;;;;;;;;;;10501825;28;20051;-72
2021/09/04 06:35:45;;;;;;;0.80;0.20;;;;;;;;;;10508009;28;20036;-72
2021/09/04 06:40:48;;;;;;;0.82;0.28;;;;;;;;;;10516058;28;20048;-73
2021/09/04 06:45:53;;;;;;;0.40;0.20;;;;;;;;;;10510395;28;20114;-73
2021/09/04 06:50:56;;;;;;;0.45;0.10;;;;;;;;;;10514123;28;20055;-75
2021/09/04 06:55:59;;;;;;;0.15;0.10;;;;;;;;;;10512436;28;20052;-73
2021/09/04 07:01:03;;;;;;;0.10;0.10;;;;;;;;;;10501546;28;20052;-73
2021/09/04 07:06:07;;;;;;;0.10;0.10;;;;;;;;;;10496234;28;20171;-73
2021/09/04 07:11:10;;;;;;;0.10;0.10;;;;;;;;;;10512814;28;20412;-74
2021/09/04 07:16:14;;;;;;;0.00;0.00;;;;;;;;;;10486296;28;20040;-73
2021/09/04 07:21:17;;;;;;;0.25;0.10;;;;;;;;;;10507148;28;20071;-73
2021/09/04 07:26:19;;;;;;;0.10;0.10;;;;;;;;;;10508368;28;20569;-73
2021/09/04 07:31:23;;;;;;;0.00;0.00;;;;;;;;;;10490055;28;20049;-74
2021/09/04 07:36:26;;;;;;;0.05;0.05;;;;;;;;;;10490637;28;20048;-76
2021/09/04 07:41:29;;;;;;;0.00;0.00;;;;;;;;;;10486495;28;20075;-74
2021/09/04 07:46:33;;;;;;;0.10;0.10;;;;;;;;;;10493332;28;20048;-73
2021/09/04 07:51:36;;;;;;;0.00;0.00;;;;;;;;;;10491797;28;20075;-73
2021/09/04 07:56:39;;;;;;;0.00;0.00;;;;;;;;;;10492389;28;20045;-73
2021/09/04 08:01:43;;;;;;;0.38;0.10;;;;;;;;;;10509792;28;20046;-73
2021/09/04 08:06:47;;;;;;;0.00;0.00;;;;;;;;;;10486154;28;20044;-73
2021/09/04 08:11:50;;;;;;;0.00;0.00;;;;;;;;;;10485898;28;20140;-73
2021/09/04 08:16:54;;;;;;;0.00;0.00;;;;;;;;;;10517893;28;20043;-73
2021/09/04 08:21:57;;;;;;;0.00;0.00;;;;;;;;;;10514231;28;20041;-72
2021/09/04 08:27:01;;;;;;;0.00;0.00;;;;;;;;;;10522118;28;20067;-75
2021/09/04 08:32:07;;;;;;;0.00;0.00;;;;;;;;;;10507686;28;20500;-73
2021/09/04 08:37:09;;;;;;;0.00;0.00;;;;;;;;;;10506576;28;20123;-74
2021/09/04 08:42:13;;;;;;;0.00;0.00;;;;;;;;;;10509432;28;20045;-74
2021/09/04 08:47:19;;;;;;;0.00;0.00;;;;;;;;;;10521589;28;20072;-75
2021/09/04 08:52:23;;;;;;;0.00;0.00;;;;;;;;;;10526609;28;20406;-74
2021/09/04 08:57:26;;;;;;;0.10;0.10;;;;;;;;;;10515400;28;20474;-74
2021/09/04 09:02:30;;;;;;;0.00;0.00;;;;;;;;;;10512836;28;20494;-74
2021/09/04 09:07:39;;;;;;;0.10;0.10;;;;;;;;;;10522584;28;20054;-75
2021/09/04 09:12:42;;;;;;;0.00;0.00;;;;;;;;;;10510579;28;20139;-74
2021/09/04 09:17:56;;;;;;;0.00;0.00;;;;;;;;;;10494568;28;20558;-74
2021/09/04 09:23:06;;;;;;;0.00;0.00;;;;;;;;;;10491113;28;20048;-74
2021/09/04 09:28:12;;;;;;;0.20;0.00;;;;;;;;;;10493607;28;20051;-73
2021/09/04 09:33:19;;;;;;;0.00;0.00;;;;;;;;;;10518488;28;20138;-73
2021/09/04 09:38:22;;;;;;;0.00;0.00;;;;;;;;;;10513506;28;20103;-72
2021/09/04 09:43:28;;;;;;;0.00;0.00;;;;;;;;;;10498047;28;20044;-74
2021/09/04 09:48:33;;;;;;;0.00;0.00;;;;;;;;;;10512146;28;20036;-74
2021/09/04 09:53:37;;;;;;;0.00;0.00;;;;;;;;;;10509725;28;20040;-74
2021/09/04 09:58:40;;;;;;;0.00;0.00;;;;;;;;;;10501288;28;20426;-74
2021/09/04 10:03:45;;;;;;;0.00;0.00;;;;;;;;;;10513425;28;20098;-74
2021/09/04 10:08:49;;;;;;;0.00;0.00;;;;;;;;;;10491779;28;20067;-74
2021/09/04 10:13:54;;;;;;;0.00;0.00;;;;;;;;;;10492329;28;20132;-74
2021/09/04 10:18:58;;;;;;;0.00;0.00;;;;;;;;;;10513630;28;20059;-74
2021/09/04 10:24:02;;;;;;;0.65;0.00;;;;;;;;;;10503549;28;20052;-73
2021/09/04 10:29:06;;;;;;;0.00;0.00;;;;;;;;;;10493425;28;20128;-73
2021/09/04 10:34:15;;;;;;;0.00;0.00;;;;;;;;;;10511052;28;20135;-73
2021/09/04 10:39:18;;;;;;;0.00;0.00;;;;;;;;;;10487472;28;20140;-74
2021/09/04 10:44:24;;;;;;;0.10;0.10;;;;;;;;;;10508866;28;20401;-73
2021/09/04 10:49:41;;;;;;;0.00;0.00;;;;;;;;;;10493130;28;20056;-74
2021/09/04 10:55:02;;;;;;;0.00;0.00;;;;;;;;;;10509235;28;20063;-73
2021/09/04 11:00:07;;;;;;;0.00;0.00;;;;;;;;;;10515581;28;20120;-74
2021/09/04 11:05:30;;;;;;;0.00;0.00;;;;;;;;;;10520518;28;20036;-73
2021/09/04 11:10:34;;;;;;;0.03;0.03;;;;;;;;;;10515289;28;20076;-74
2021/09/04 11:15:37;;;;;;;0.03;0.03;;;;;;;;;;10506886;28;20093;-74
2021/09/04 11:20:42;;;;;;;0.00;0.00;;;;;;;;;;10483633;28;20102;-74
2021/09/04 11:25:48;;;;;;;0.00;0.00;;;;;;;;;;10507864;28;20040;-74
2021/09/04 11:30:50;;;;;;;0.00;0.00;;;;;;;;;;10495547;28;20058;-73
2021/09/04 11:35:55;;;;;;;0.00;0.00;;;;;;;;;;10504514;28;20060;-74
2021/09/04 11:40:59;;;;;;;0.08;0.08;;;;;;;;;;10491731;28;20060;-72
2021/09/04 11:46:02;;;;;;;0.00;0.00;;;;;;;;;;10513696;28;20040;-72
2021/09/04 11:51:06;;;;;;;0.10;0.10;;;;;;;;;;10510792;28;20040;-72
2021/09/04 11:56:15;;;;;;;0.00;0.00;;;;;;;;;;10500728;28;20044;-72
2021/09/04 12:01:19;;;;;;;0.10;0.10;;;;;;;;;;10492779;28;20139;-72
2021/09/04 12:06:23;;;;;;;0.10;0.10;;;;;;;;;;10512246;28;20482;-73
2021/09/04 12:11:28;;;;;;;0.00;0.00;;;;;;;;;;10521228;28;20486;-72
2021/09/04 12:16:35;;;;;;;0.00;0.00;;;;;;;;;;10496012;28;20135;-73
2021/09/04 12:21:49;;;;;;;0.00;0.00;;;;;;;;;;10505201;28;20877;-72
2021/09/04 12:26:53;;;;;;;0.00;0.00;;;;;;;;;;10522851;28;20123;-73
2021/09/04 12:32:05;;;;;;;0.00;0.00;;;;;;;;;;10523924;28;20040;-73
2021/09/04 12:37:23;;;;;;;0.00;0.00;;;;;;;;;;10502108;28;20143;-72
2021/09/04 12:42:27;;;;;;;0.10;0.00;;;;;;;;;;10511948;28;20075;-72
2021/09/04 12:47:40;;;;;;;0.00;0.00;;;;;;;;;;10521163;28;20048;-73
2021/09/04 12:52:43;;;;;;;0.00;0.00;;;;;;;;;;10513339;28;20047;-72
2021/09/04 12:57:48;;;;;;;0.05;0.05;;;;;;;;;;10496742;28;20047;-73
2021/09/04 13:02:54;;;;;;;0.00;0.00;;;;;;;;;;10515316;28;20063;-74
2021/09/04 13:07:58;;;;;;;0.00;0.00;;;;;;;;;;10500854;28;20047;-74
2021/09/04 13:13:03;;;;;;;0.10;0.00;;;;;;;;;;10510766;28;20139;-74
2021/09/04 13:18:05;;;;;;;0.00;0.00;;;;;;;;;;10507389;28;20042;-74
2021/09/04 13:23:08;;;;;;;0.10;0.10;;;;;;;;;;10519985;28;20048;-75
2021/09/04 13:28:12;;;;;;;0.00;0.00;;;;;;;;;;10500131;28;20074;-74
2021/09/04 13:33:15;;;;;;;0.00;0.00;;;;;;;;;;10492216;28;20083;-74
2021/09/04 13:38:18;;;;;;;0.00;0.00;;;;;;;;;;10518186;28;20032;-76
2021/09/04 13:43:23;;;;;;;0.00;0.00;;;;;;;;;;10516104;28;20040;-75
2021/09/04 13:48:26;;;;;;;0.00;0.00;;;;;;;;;;10522561;28;20110;-75
2021/09/04 13:53:28;;;;;;;0.00;0.00;;;;;;;;;;10508484;28;20044;-75
2021/09/04 13:58:35;;;;;;;0.00;0.00;;;;;;;;;;10515301;28;20045;-74
2021/09/04 14:03:37;;;;;;;0.00;0.00;;;;;;;;;;10508671;28;20055;-76
2021/09/04 14:08:40;;;;;;;0.00;0.00;;;;;;;;;;10507640;28;20501;-74
2021/09/04 14:13:44;;;;;;;0.00;0.00;;;;;;;;;;10467524;28;20059;-74
2021/09/04 14:18:48;;;;;;;0.00;0.00;;;;;;;;;;10478599;28;20045;-76
2021/09/04 14:23:51;;;;;;;0.00;0.00;;;;;;;;;;10476668;28;20044;-75
2021/09/04 14:28:56;;;;;;;0.00;0.00;;;;;;;;;;10472042;28;20510;-74
2021/09/04 14:33:59;;;;;;;0.00;0.00;;;;;;;;;;10463457;28;20056;-75
2021/09/04 14:39:01;;;;;;;0.00;0.00;;;;;;;;;;10470742;28;20063;-75
2021/09/04 14:44:07;;;;;;;0.00;0.00;;;;;;;;;;10473558;28;20040;-74
2021/09/04 14:49:10;;;;;;;0.00;0.00;;;;;;;;;;10471340;28;20045;-75
2021/09/04 14:54:13;;;;;;;0.00;0.00;;;;;;;;;;10472254;28;20936;-75
2021/09/04 14:59:17;;;;;;;0.00;0.00;;;;;;;;;;10463744;28;20053;-74
2021/09/04 15:04:21;;;;;;;0.00;0.00;;;;;;;;;;10464690;28;20043;-73
2021/09/04 15:09:24;;;;;;;0.22;0.00;;;;;;;;;;10471474;28;20041;-75
2021/09/04 15:14:28;;;;;;;0.00;0.00;;;;;;;;;;10516508;28;20118;-74
2021/09/04 15:19:31;;;;;;;0.00;0.00;;;;;;;;;;10515443;28;20119;-76
2021/09/04 15:24:33;;;;;;;0.00;0.00;;;;;;;;;;10504525;28;20052;-75
2021/09/04 15:29:37;;;;;;;0.10;0.00;;;;;;;;;;10526176;28;20044;-77
2021/09/04 15:34:40;;;;;;;0.00;0.00;;;;;;;;;;10513360;28;20630;-75
2021/09/04 15:39:59;;;;;;;0.00;0.00;;;;;;;;;;10525819;28;20046;-78
2021/09/04 15:45:07;;;;;;;0.00;0.00;;;;;;;;;;10525647;28;20039;-77
2021/09/04 15:50:11;;;;;;;0.00;0.00;;;;;;;;;;10531669;28;20044;-78
2021/09/04 15:55:19;;;;;;;0.00;0.00;;;;;;;;;;10513048;28;20440;-75
2021/09/04 16:00:23;;;;;;;0.30;0.00;;;;;;;;;;10500189;28;20055;-78
2021/09/04 16:05:27;;;;;;;0.00;0.00;;;;;;;;;;10520801;28;20051;-79
2021/09/04 16:10:30;;;;;;;0.00;0.00;;;;;;;;;;10515113;28;20059;-77
2021/09/04 16:15:34;;;;;;;0.00;0.00;;;;;;;;;;10528419;28;20048;-75
2021/09/04 16:20:37;;;;;;;0.00;0.00;;;;;;;;;;10521437;28;20116;-77
2021/09/04 16:25:42;;;;;;;0.00;0.00;;;;;;;;;;10525865;28;20032;-75
2021/09/04 16:30:47;;;;;;;0.00;0.00;;;;;;;;;;10499197;28;20048;-75
2021/09/04 16:35:50;;;;;;;0.03;0.00;;;;;;;;;;10516026;28;20046;-76
2021/09/04 16:40:55;;;;;;;0.00;0.00;;;;;;;;;;10498847;28;20048;-77
2021/09/04 16:46:00;;;;;;;0.00;0.00;;;;;;;;;;10512987;28;20044;-80
2021/09/04 16:51:03;;;;;;;0.00;0.00;;;;;;;;;;10521783;28;20062;-79
2021/09/04 16:56:06;;;;;;;0.00;0.00;;;;;;;;;;10511722;28;20513;-76
2021/09/04 17:01:10;;;;;;;0.00;0.00;;;;;;;;;;10514876;28;20059;-74
2021/09/04 17:06:18;;;;;;;0.00;0.00;;;;;;;;;;10521951;28;20098;-76
2021/09/04 17:11:22;;;;;;;0.00;0.00;;;;;;;;;;10489339;28;20048;-74
2021/09/04 17:16:26;;;;;;;0.00;0.00;;;;;;;;;;10497781;28;20080;-74
2021/09/04 17:21:30;;;;;;;0.03;0.00;;;;;;;;;;10490820;28;20505;-75
2021/09/04 17:26:35;;;;;;;0.00;0.00;;;;;;;;;;10517893;28;20040;-74
2021/09/04 17:31:39;;;;;;;0.00;0.00;;;;;;;;;;10508398;28;20125;-73
2021/09/04 17:36:42;;;;;;;0.00;0.00;;;;;;;;;;10511790;28;20041;-73
2021/09/04 17:41:45;;;;;;;0.00;0.00;;;;;;;;;;10496871;28;20572;-74
2021/09/04 17:46:50;;;;;;;0.00;0.00;;;;;;;;;;10511429;28;20040;-73
2021/09/04 17:51:54;;;;;;;0.00;0.00;;;;;;;;;;10509087;28;20109;-73
2021/09/04 17:56:57;;;;;;;0.00;0.00;;;;;;;;;;10491433;28;20064;-74
2021/09/04 18:02:02;;;;;;;0.03;0.03;;;;;;;;;;10512355;28;20049;-75
2021/09/04 18:07:06;;;;;;;0.03;0.03;;;;;;;;;;10497124;28;20408;-75
2021/09/04 18:12:09;;;;;;;0.00;0.00;;;;;;;;;;10492242;28;20529;-74
2021/09/04 18:17:14;;;;;;;0.00;0.00;;;;;;;;;;10507553;28;20046;-73
2021/09/04 18:22:18;;;;;;;0.00;0.00;;;;;;;;;;10517301;28;20039;-72
2021/09/04 18:27:21;;;;;;;0.00;0.00;;;;;;;;;;10508975;28;20389;-72
2021/09/04 18:32:26;;;;;;;0.00;0.00;;;;;;;;;;10511912;28;20052;-72
2021/09/04 18:37:31;;;;;;;0.00;0.00;;;;;;;;;;10508379;28;20122;-76
2021/09/04 18:42:35;;;;;;;0.10;0.10;;;;;;;;;;10498819;28;20142;-75
2021/09/04 18:47:40;;;;;;;0.00;0.00;;;;;;;;;;10496254;28;20127;-73
2021/09/04 18:52:44;;;;;;;0.00;0.00;;;;;;;;;;10502842;28;20079;-72
2021/09/04 18:57:49;;;;;;;0.00;0.00;;;;;;;;;;10519801;28;20040;-72
2021/09/04 19:02:55;;;;;;;0.00;0.00;;;;;;;;;;10508040;28;20561;-72
2021/09/04 19:08:19;;;;;;;0.00;0.00;;;;;;;;;;10511688;28;20028;-71
2021/09/04 19:13:23;;;;;;;0.00;0.00;;;;;;;;;;10516487;28;20103;-72
2021/09/04 19:18:29;;;;;;;0.00;0.00;;;;;;;;;;10496609;28;20406;-71
2021/09/04 19:23:36;;;;;;;0.00;0.00;;;;;;;;;;10488494;28;20052;-72
2021/09/04 19:28:40;;;;;;;0.10;0.10;;;;;;;;;;10515050;28;20046;-71
2021/09/04 19:33:46;;;;;;;0.00;0.00;;;;;;;;;;10509723;28;20064;-72
2021/09/04 19:38:50;;;;;;;0.00;0.00;;;;;;;;;;10511552;28;20047;-72
2021/09/04 19:43:55;;;;;;;0.00;0.00;;;;;;;;;;10515393;28;20059;-72
2021/09/04 19:48:59;;;;;;;0.00;0.00;;;;;;;;;;10513689;28;20040;-71
2021/09/04 19:54:03;;;;;;;0.00;0.00;;;;;;;;;;10509198;28;20044;-72
2021/09/04 19:59:06;;;;;;;0.00;0.00;;;;;;;;;;10488871;28;20525;-71
2021/09/04 20:04:10;;;;;;;0.00;0.00;;;;;;;;;;10495135;28;20044;-72
2021/09/04 20:09:13;;;;;;;0.00;0.00;;;;;;;;;;10521774;28;20056;-71
2021/09/04 20:14:16;;;;;;;0.10;0.10;;;;;;;;;;10509245;28;20056;-71
2021/09/04 20:19:21;;;;;;;0.00;0.00;;;;;;;;;;10500720;28;20462;-71
2021/09/04 20:24:25;;;;;;;0.00;0.00;;;;;;;;;;10517518;28;20063;-71
2021/09/04 20:29:29;;;;;;;0.05;0.05;;;;;;;;;;10510575;28;20123;-71
2021/09/04 20:34:33;;;;;;;0.00;0.00;;;;;;;;;;10493011;28;20063;-71
2021/09/04 20:39:37;;;;;;;0.00;0.00;;;;;;;;;;10516990;28;20076;-71
2021/09/04 20:44:40;;;;;;;0.00;0.00;;;;;;;;;;10516561;28;20516;-72
2021/09/04 20:49:47;;;;;;;0.10;0.10;;;;;;;;;;10518099;28;20045;-71
2021/09/04 20:54:56;;;;;;;0.10;0.10;;;;;;;;;;10498096;28;20363;-72
2021/09/04 21:00:00;;;;;;;0.00;0.00;;;;;;;;;;10516702;28;20106;-71
2021/09/04 21:05:06;;;;;;;0.05;0.05;;;;;;;;;;10513078;28;20094;-70
2021/09/04 21:10:10;;;;;;;0.00;0.00;;;;;;;;;;10513555;28;20055;-71
2021/09/04 21:15:16;;;;;;;0.00;0.00;;;;;;;;;;10499204;28;20385;-73
2021/09/04 21:20:20;;;;;;;0.10;0.10;;;;;;;;;;10496086;28;20064;-74
2021/09/04 21:25:23;;;;;;;0.10;0.10;;;;;;;;;;10509946;28;20051;-73
2021/09/04 21:30:26;;;;;;;0.10;0.10;;;;;;;;;;10512054;28;20494;-74
2021/09/04 21:35:30;;;;;;;0.10;0.10;;;;;;;;;;10512053;28;20054;-73
2021/09/04 21:40:33;;;;;;;0.10;0.10;;;;;;;;;;10513005;28;20089;-73
2021/09/04 21:45:35;;;;;;;0.28;0.10;;;;;;;;;;10512033;28;20040;-73
2021/09/04 21:50:41;;;;;;;0.00;0.00;;;;;;;;;;10506502;28;20044;-75
2021/09/04 21:55:44;;;;;;;0.00;0.00;;;;;;;;;;10506218;28;20143;-73
2021/09/04 22:00:48;;;;;;;0.00;0.00;;;;;;;;;;10510873;28;20048;-73
2021/09/04 22:05:52;;;;;;;0.00;0.00;;;;;;;;;;10488593;28;20056;-74
2021/09/04 22:10:56;;;;;;;0.00;0.00;;;;;;;;;;10509609;28;20401;-73
2021/09/04 22:15:59;;;;;;;0.00;0.00;;;;;;;;;;10517724;28;20048;-73
2021/09/04 22:21:04;;;;;;;0.10;0.10;;;;;;;;;;10518827;28;20128;-74
2021/09/04 22:26:14;;;;;;;0.10;0.10;;;;;;;;;;10503830;28;20048;-78
2021/09/04 22:31:17;;;;;;;0.10;0.10;;;;;;;;;;10511560;28;20051;-78
2021/09/04 22:36:29;;;;;;;0.00;0.00;;;;;;;;;;10507807;28;20037;-77
2021/09/04 22:41:33;;;;;;;0.05;0.05;;;;;;;;;;10508651;28;20044;-78
2021/09/04 22:46:36;;;;;;;0.10;0.00;;;;;;;;;;10513841;28;20044;-78
2021/09/04 22:51:42;;;;;;;0.10;0.10;;;;;;;;;;10516267;28;20043;-77
2021/09/04 22:56:49;;;;;;;0.10;0.10;;;;;;;;;;10513866;28;20890;-78
2021/09/04 23:01:53;;;;;;;0.20;0.10;;;;;;;;;;10514654;28;20044;-77
2021/09/04 23:06:59;;;;;;;0.05;0.05;;;;;;;;;;10505040;28;20055;-77
2021/09/04 23:12:02;;;;;;;0.00;0.00;;;;;;;;;;10502478;28;20048;-76
2021/09/04 23:17:07;;;;;;;0.10;0.10;;;;;;;;;;10512483;28;20127;-77
2021/09/04 23:22:14;;;;;;;0.10;0.10;;;;;;;;;;10512658;28;20050;-77
2021/09/04 23:27:19;;;;;;;0.40;0.20;;;;;;;;;;10512151;28;20046;-77
2021/09/04 23:32:23;;;;;;;3.53;1.02;;;;;;;;;;10505748;28;20867;-77
2021/09/04 23:37:34;;;;;;;2.58;0.80;;;;;;;;;;10507133;28;20532;-78
2021/09/04 23:42:39;;;;;;;2.73;0.70;;;;;;;;;;10518461;28;20051;-77
2021/09/04 23:47:43;;;;;;;2.85;0.93;;;;;;;;;;10521769;28;20055;-77
2021/09/04 23:52:47;;;;;;;3.70;1.08;;;;;;;;;;10495203;28;20040;-77
2021/09/04 23:57:58;;;;;;;3.03;1.00;;;;;;;;;;10520281;28;20049;-77
